RU-0128 weather

Budyonnovsk Air Base
Budyonnovsk, Stavropol Krai, Russia

Public forecast

Using degrees Celsius for public forecast. Weather courtesy of forecast.io.

METAR (pilot weather report)

Closest report is Mineralnyye Vody Airport, 53.9 nm (99.9 km) SW. Retrieved 2019/08/22 08:30 UTC (0 seconds ago):

URMM 220830Z 09007MPS 9999 NSC 31/12 Q1012 R12/090070 NOSIG RMK QFE731/0974

TAF (pilot weather forecast)

Closest forecast is Mineralnyye Vody Airport, 53.9 nm (99.9 km) SW. Retrieved 2019/08/22 09:24 UTC (0 seconds ago):

TAF URMM 220800Z 2209/2309 09007G14MPS 9999 NSC TX35/2212Z TN18/2303Z TEMPO 2209/2215 10010G17MPS BECMG 2215/2217 09003G08MPS TEMPO 2221/2306 3100 BR BKN011